createdAt,value
2023-02-19T00:00:01.005Z,100252.05
2023-02-19T00:02:29.511Z,100248.17
2023-02-19T00:04:59.755Z,100238.86
2023-02-19T00:07:31.990Z,100245.55
2023-02-19T00:09:59.764Z,100244.02
2023-02-19T00:12:29.041Z,100242.66
2023-02-19T00:15:07.067Z,100241.15
2023-02-19T00:17:40.931Z,100242.87
2023-02-19T00:20:09.408Z,100241.65
2023-02-19T00:22:38.716Z,100238.13
2023-02-19T00:25:07.343Z,100236.60
2023-02-19T00:27:37.253Z,100233.40
2023-02-19T00:30:07.925Z,100227.29
2023-02-19T00:32:35.817Z,100229.00
2023-02-19T00:35:04.479Z,100223.59
2023-02-19T00:37:35.489Z,100225.09
2023-02-19T00:40:17.585Z,100229.36
2023-02-19T00:42:48.241Z,100223.04
2023-02-19T00:45:22.607Z,100223.55
2023-02-19T00:47:57.361Z,100227.88
2023-02-19T00:50:33.265Z,100223.63
2023-02-19T00:53:01.263Z,100226.20
2023-02-19T00:55:31.670Z,100220.94
2023-02-19T00:57:59.384Z,100220.82
2023-02-19T01:06:43.872Z,100210.80
2023-02-19T01:09:20.575Z,100201.48
2023-02-19T01:12:12.120Z,100198.01
2023-02-19T01:15:11.853Z,100193.16
2023-02-19T01:17:56.297Z,100189.94
2023-02-19T01:21:23.134Z,100188.30
2023-02-19T01:24:14.016Z,100185.02
2023-02-19T01:27:02.378Z,100183.89
2023-02-19T01:29:43.987Z,100182.98
2023-02-19T01:32:13.080Z,100180.63
2023-02-19T01:34:40.801Z,100179.37
2023-02-19T01:37:12.238Z,100179.27
2023-02-19T01:39:40.140Z,100180.58
2023-02-19T01:42:14.322Z,100183.08
2023-02-19T01:44:45.373Z,100181.69
2023-02-19T01:58:46.476Z,100148.56
2023-02-19T02:20:35.973Z,100119.40
2023-02-19T02:23:03.759Z,100114.39
2023-02-19T02:26:16.238Z,100113.48
2023-02-19T02:29:27.206Z,100107.06
2023-02-19T02:32:20.192Z,100104.02
2023-02-19T03:24:33.654Z,100081.33
2023-02-19T03:27:02.910Z,100080.00
2023-02-19T03:29:32.723Z,100075.95
2023-02-19T03:32:09.036Z,100072.94
2023-02-19T03:34:54.783Z,100065.09
2023-02-19T03:37:27.498Z,100050.47
2023-02-19T03:39:55.598Z,100045.06
2023-02-19T03:42:40.006Z,100042.45
2023-02-19T03:45:26.954Z,100037.90
2023-02-19T03:48:07.039Z,100038.45
2023-02-19T03:51:01.219Z,100036.55
2023-02-19T03:54:09.249Z,100041.11
2023-02-19T03:57:25.203Z,100043.66
2023-02-19T04:00:19.049Z,100046.41
2023-02-19T04:03:48.491Z,100047.40
2023-02-19T04:07:17.252Z,100051.67
2023-02-19T04:14:30.229Z,100045.23
2023-02-19T05:12:02.614Z,100009.66
2023-02-19T05:14:30.521Z,100006.90
2023-02-19T05:17:01.726Z,100009.83
2023-02-19T05:19:29.747Z,100006.74
2023-02-19T05:21:57.842Z,100003.50
2023-02-19T05:24:26.817Z,100008.10
2023-02-19T05:26:54.836Z,100007.80
2023-02-19T05:29:22.800Z,100008.70
2023-02-19T05:31:50.682Z,99998.69
2023-02-19T05:34:18.428Z,99998.02
2023-02-19T05:36:46.492Z,99994.60
2023-02-19T05:39:14.422Z,99993.83
2023-02-19T05:41:42.243Z,99991.45
2023-02-19T05:44:11.266Z,99995.17
2023-02-19T05:46:39.052Z,99990.88
2023-02-19T05:49:07.026Z,99995.78
2023-02-19T05:51:34.965Z,99997.42
2023-02-19T05:54:02.925Z,100000.45
2023-02-19T05:56:38.611Z,99993.86
2023-02-19T05:59:21.490Z,99994.77
2023-02-19T06:01:51.604Z,99995.57
2023-02-19T06:04:20.603Z,99994.41
2023-02-19T06:06:49.144Z,99996.95
2023-02-19T06:09:17.065Z,99992.30
2023-02-19T06:11:45.159Z,99993.07
2023-02-19T06:14:14.100Z,99992.67
2023-02-19T06:16:41.920Z,99993.68
2023-02-19T06:19:10.218Z,99996.38
2023-02-19T06:21:37.983Z,100004.23
2023-02-19T06:24:07.588Z,100010.29
2023-02-19T06:30:37.003Z,100014.63
2023-02-19T06:33:17.302Z,100016.33
2023-02-19T06:39:02.376Z,100018.08
2023-02-19T06:41:37.670Z,100019.16
2023-02-19T06:44:28.919Z,100024.71
2023-02-19T06:47:02.871Z,100020.66
2023-02-19T06:50:16.534Z,100015.38
2023-02-19T06:53:08.856Z,100032.61
2023-02-19T06:55:43.109Z,100026.73
2023-02-19T06:58:38.107Z,100037.36
2023-02-19T07:01:23.140Z,100036.23
2023-02-19T07:04:37.312Z,100036.52
2023-02-19T07:07:08.841Z,100046.13
2023-02-19T08:20:25.431Z,100192.88
2023-02-19T08:22:53.214Z,100196.42
2023-02-19T08:25:20.936Z,100198.97
2023-02-19T08:27:48.772Z,100199.66
2023-02-19T08:30:16.656Z,100206.25
2023-02-19T08:32:44.438Z,100213.35
2023-02-19T08:35:12.413Z,100214.91
2023-02-19T08:37:40.221Z,100219.15
2023-02-19T08:40:08.700Z,100223.65
2023-02-19T08:42:36.675Z,100226.98
2023-02-19T08:45:05.494Z,100226.86
2023-02-19T08:47:38.888Z,100231.21
2023-02-19T08:50:16.498Z,100228.05
2023-02-19T08:52:44.393Z,100240.08
2023-02-19T08:55:13.125Z,100240.22
2023-02-19T08:57:41.372Z,100243.56
2023-02-19T09:00:12.079Z,100246.42
2023-02-19T09:02:39.967Z,100254.23
2023-02-19T09:05:07.955Z,100258.05
2023-02-19T09:07:35.685Z,100264.99
2023-02-19T09:10:16.172Z,100268.45
2023-02-19T09:12:43.931Z,100267.54
2023-02-19T09:15:12.390Z,100274.51
2023-02-19T09:17:40.318Z,100277.37
2023-02-19T09:20:08.776Z,100279.70
2023-02-19T09:22:36.985Z,100288.36
2023-02-19T09:25:05.144Z,100286.14
2023-02-19T09:27:33.549Z,100288.97
2023-02-19T09:30:01.437Z,100292.63
2023-02-19T09:32:32.498Z,100300.27
2023-02-19T09:35:00.362Z,100307.90
2023-02-19T09:37:28.353Z,100308.34
2023-02-19T09:39:56.228Z,100307.65
2023-02-19T09:42:26.720Z,100304.66
2023-02-19T09:44:56.243Z,100306.13
2023-02-19T09:47:26.832Z,100307.95
2023-02-19T09:51:44.625Z,100312.02
2023-02-19T10:08:40.705Z,100347.13
2023-02-19T10:15:01.332Z,100362.16
2023-02-19T10:54:25.991Z,100414.05
2023-02-19T10:56:54.622Z,100418.77
2023-02-19T10:59:30.053Z,100424.95
2023-02-19T11:09:53.740Z,100432.77
2023-02-19T11:12:55.411Z,100436.20
2023-02-19T11:23:01.927Z,100447.55
2023-02-19T11:25:30.137Z,100452.05
2023-02-19T11:27:58.016Z,100454.83
2023-02-19T11:30:41.413Z,100451.59
2023-02-19T11:33:29.100Z,100452.16
2023-02-19T12:39:28.570Z,100503.99
2023-02-19T12:42:12.128Z,100515.02
2023-02-19T12:44:46.443Z,100519.25
2023-02-19T12:47:38.351Z,100518.14
2023-02-19T12:50:17.787Z,100522.34
2023-02-19T12:52:50.147Z,100527.52
2023-02-19T12:55:29.270Z,100527.83
2023-02-19T12:58:01.521Z,100533.95
2023-02-19T13:00:45.580Z,100542.88
2023-02-19T13:03:23.206Z,100546.19
2023-02-19T13:06:10.088Z,100554.53
2023-02-19T13:09:05.481Z,100559.83
2023-02-19T13:12:03.047Z,100563.73
2023-02-19T13:14:41.495Z,100564.40
2023-02-19T13:17:38.857Z,100567.52
2023-02-19T13:20:32.443Z,100571.70
2023-02-19T13:23:25.084Z,100570.81
2023-02-19T13:26:17.987Z,100570.08
2023-02-19T13:29:16.532Z,100569.20
2023-02-19T13:31:53.552Z,100566.48
2023-02-19T13:34:59.058Z,100569.92
2023-02-19T13:37:27.367Z,100572.29
2023-02-19T13:39:56.017Z,100573.02
2023-02-19T13:42:31.754Z,100579.42
2023-02-19T13:45:01.611Z,100578.91
2023-02-19T13:47:54.632Z,100578.16
2023-02-19T13:50:30.930Z,100583.59
2023-02-19T13:53:00.442Z,100584.11
2023-02-19T13:55:44.268Z,100593.05
2023-02-19T13:59:06.501Z,100592.36
2023-02-19T14:01:57.152Z,100595.59
2023-02-19T14:04:43.781Z,100605.85
2023-02-19T14:07:11.443Z,100605.21
2023-02-19T14:09:43.896Z,100608.33
2023-02-19T14:12:16.077Z,100609.30
2023-02-19T14:14:45.191Z,100611.95
2023-02-19T14:17:42.220Z,100616.86
2023-02-19T14:20:10.026Z,100620.86
2023-02-19T14:22:52.028Z,100615.91
2023-02-19T14:25:32.191Z,100615.45
2023-02-19T14:28:03.295Z,100626.39
2023-02-19T14:30:33.636Z,100635.73
2023-02-19T14:33:10.657Z,100638.23
2023-02-19T14:35:45.866Z,100644.92
2023-02-19T14:38:18.954Z,100646.94
2023-02-19T14:40:48.087Z,100651.27
2023-02-19T14:43:18.561Z,100649.73
2023-02-19T14:45:59.364Z,100652.92
2023-02-19T14:48:34.730Z,100655.17
2023-02-19T14:51:07.139Z,100660.27
2023-02-19T14:53:39.491Z,100660.49
2023-02-19T14:56:21.010Z,100664.30
2023-02-19T14:59:06.823Z,100678.38
2023-02-19T15:01:34.758Z,100680.48
2023-02-19T15:04:03.026Z,100688.80
2023-02-19T15:06:31.817Z,100690.66
2023-02-19T15:09:03.814Z,100692.14
2023-02-19T15:11:32.787Z,100694.36
2023-02-19T15:14:03.148Z,100700.39
2023-02-19T15:16:32.779Z,100697.41
2023-02-19T15:19:01.394Z,100701.40
2023-02-19T15:21:32.334Z,100698.31
2023-02-19T15:24:02.442Z,100699.81
2023-02-19T15:26:35.972Z,100700.35
2023-02-19T15:29:10.354Z,100696.73
2023-02-19T15:31:52.325Z,100700.84
2023-02-19T15:34:28.504Z,100707.45
2023-02-19T15:37:02.742Z,100713.86
2023-02-19T15:39:41.834Z,100714.66
2023-02-19T15:42:17.091Z,100718.17
2023-02-19T15:44:49.815Z,100721.40
2023-02-19T15:47:28.753Z,100724.58
2023-02-19T15:50:08.375Z,100730.08
2023-02-19T15:52:50.779Z,100732.02
2023-02-19T15:55:30.840Z,100736.36
2023-02-19T15:58:23.012Z,100748.20
2023-02-19T16:00:56.305Z,100751.14
2023-02-19T16:03:27.976Z,100752.40
2023-02-19T16:06:02.330Z,100755.08
2023-02-19T16:08:35.916Z,100760.64
2023-02-19T16:11:06.901Z,100773.41
2023-02-19T16:13:35.820Z,100771.45
2023-02-19T16:16:06.640Z,100773.58
2023-02-19T16:18:35.223Z,100775.31
2023-02-19T16:21:07.976Z,100780.22
2023-02-19T16:23:36.175Z,100785.45
2023-02-19T16:26:04.440Z,100782.39
2023-02-19T16:28:37.367Z,100783.69
2023-02-19T16:31:07.718Z,100788.81
2023-02-19T16:33:38.100Z,100793.83
2023-02-19T16:36:33.472Z,100797.35
2023-02-19T16:39:07.481Z,100801.89
2023-02-19T16:41:47.528Z,100806.66
2023-02-19T16:44:21.697Z,100813.85
2023-02-19T16:46:50.538Z,100816.17
2023-02-19T16:49:18.506Z,100817.11
2023-02-19T16:51:46.997Z,100815.23
2023-02-19T16:54:15.080Z,100819.93
2023-02-19T16:56:43.125Z,100825.88
2023-02-19T16:59:11.007Z,100838.05
2023-02-19T17:01:39.069Z,100839.66
2023-02-19T17:04:09.745Z,100840.92
2023-02-19T17:06:38.104Z,100845.77
2023-02-19T17:09:07.411Z,100853.06
2023-02-19T17:11:36.111Z,100865.00
2023-02-19T17:14:04.322Z,100865.75
2023-02-19T17:16:40.411Z,100868.11
2023-02-19T17:19:20.029Z,100865.93
2023-02-19T17:21:48.442Z,100871.11
2023-02-19T17:24:16.674Z,100877.07
2023-02-19T17:26:44.655Z,100877.76
2023-02-19T17:29:15.306Z,100885.42
2023-02-19T17:31:43.304Z,100880.36
2023-02-19T17:34:11.566Z,100877.67
2023-02-19T17:36:40.882Z,100876.31
2023-02-19T17:39:15.187Z,100881.30
2023-02-19T17:41:43.483Z,100891.98
2023-02-19T17:44:11.859Z,100901.05
2023-02-19T17:46:40.198Z,100898.73
2023-02-19T17:49:10.775Z,100902.08
2023-02-19T17:51:38.715Z,100900.73
2023-02-19T17:54:08.343Z,100907.27
2023-02-19T17:56:36.847Z,100908.77
2023-02-19T17:59:07.073Z,100912.74
2023-02-19T18:01:35.183Z,100923.34
2023-02-19T18:04:04.624Z,100932.70
2023-02-19T18:06:32.749Z,100928.90
2023-02-19T18:09:00.906Z,100930.95
2023-02-19T18:11:28.852Z,100940.13
2023-02-19T18:13:56.960Z,100932.48
2023-02-19T18:16:27.666Z,100935.48
2023-02-19T18:18:57.718Z,100940.02
2023-02-19T18:21:26.370Z,100941.71
2023-02-19T18:23:54.155Z,100940.74
2023-02-19T18:26:22.324Z,100943.67
2023-02-19T18:28:50.312Z,100943.87
2023-02-19T18:31:18.098Z,100950.48
2023-02-19T18:33:46.377Z,100953.19
2023-02-19T18:36:18.758Z,100965.73
2023-02-19T18:39:00.408Z,100966.17
2023-02-19T18:41:58.317Z,100969.20
2023-02-19T18:44:36.785Z,100975.31
2023-02-19T18:47:37.249Z,100972.48
2023-02-19T18:51:03.980Z,100968.56
2023-02-19T18:53:31.988Z,100982.99
2023-02-19T18:56:01.995Z,100987.54
2023-02-19T18:58:29.832Z,100989.98
2023-02-19T19:00:59.674Z,100989.23
2023-02-19T19:03:30.243Z,100985.08
2023-02-19T19:05:59.254Z,100983.16
2023-02-19T19:08:28.636Z,100986.69
2023-02-19T19:10:58.017Z,100986.06
2023-02-19T19:13:26.233Z,100987.14
2023-02-19T19:15:54.210Z,100988.54
2023-02-19T19:18:22.347Z,100986.88
2023-02-19T19:20:50.684Z,100987.63
2023-02-19T19:23:19.219Z,100992.44
2023-02-19T19:25:47.319Z,100993.77
2023-02-19T19:28:15.171Z,100998.25
2023-02-19T19:30:43.271Z,100999.52
2023-02-19T19:33:12.147Z,101000.77
2023-02-19T19:35:41.923Z,101008.77
2023-02-19T19:38:10.089Z,101010.03
2023-02-19T19:40:38.292Z,101015.52
2023-02-19T19:43:06.413Z,101019.27
2023-02-19T19:45:34.484Z,101017.48
2023-02-19T19:48:02.265Z,101014.95
2023-02-19T19:50:30.753Z,101015.01
2023-02-19T19:52:58.856Z,101018.02
2023-02-19T19:55:27.677Z,101019.42
2023-02-19T19:57:56.009Z,101027.62
2023-02-19T20:00:24.515Z,101030.52
2023-02-19T20:02:52.824Z,101034.15
2023-02-19T20:05:21.239Z,101041.45
2023-02-19T20:07:49.911Z,101046.02
2023-02-19T20:10:19.737Z,101045.34
2023-02-19T20:12:48.045Z,101047.10
2023-02-19T20:15:21.986Z,101049.18
2023-02-19T20:17:50.714Z,101050.30
2023-02-19T20:20:19.144Z,101048.17
2023-02-19T20:22:47.368Z,101048.90
2023-02-19T20:25:16.290Z,101053.47
2023-02-19T20:27:44.302Z,101057.55
2023-02-19T20:30:14.574Z,101056.12
2023-02-19T20:32:42.672Z,101056.58
2023-02-19T20:35:10.823Z,101052.23
2023-02-19T20:37:39.696Z,101053.34
2023-02-19T20:40:38.837Z,101057.20
2023-02-19T23:05:46.356Z,101172.21
2023-02-19T23:15:05.489Z,101167.67
2023-02-19T23:17:33.033Z,101162.58
2023-02-19T23:19:59.488Z,101165.29
2023-02-19T23:22:25.852Z,101169.30
2023-02-19T23:24:52.407Z,101168.84
2023-02-19T23:27:19.251Z,101172.35
2023-02-19T23:29:46.443Z,101168.33
2023-02-19T23:32:13.019Z,101165.69
2023-02-19T23:34:39.447Z,101157.55
2023-02-19T23:37:06.080Z,101154.52
2023-02-19T23:39:33.899Z,101150.41
2023-02-19T23:42:00.579Z,101146.85
2023-02-19T23:44:27.204Z,101147.40
2023-02-19T23:46:53.829Z,101142.50
2023-02-19T23:58:21.222Z,101140.45
